Oneida, New York
Current Conditions -  °F | °C
As of 3:53 AM on Sunday 26 Oct 2014 (Local Time) from KRME Reporting Station
Overcast Overcast  
Wind Chill: 43°   Ceiling: 6500
Heat Index: 48°   Visibility: 10mi
Dew Point: 40°   Wind: 12mph
Humidity: 74%   Direction: 280°W
Pressure: 29.55"   Gusts: NA
Location:  43.1°N, 75.65°W
Report Text: KRME 260753Z AUTO 28010KT 10SM FEW043 OVC065 09/04 A2955 RMK AO2 SLP005 T00890044
Loading
Personal Weather Stations






























Interactive Weather Map
Tropical Storm Tracking
New forecast layout! Learn more

10-Day Weather Forecast

Advertisements
Track Severe Weather on mobile